Nordpol — OVSF2 — position and weather

sailwx.info

Track history (hours):
 
Tides and Currents Weather Stations Pressure Air Temp Water Temp Dewpoint Dewpoint Depression Visibility Wind Speed Wind Dir Waves Ship Positions

Nordpol

Last reported at 2017-Oct-18 13:04 UTC. Time now 2017-Oct-22 17:21 UTC.
Position S 01°28' W 056°21'.

Length 225 m; draft 6.7 m.

Type: Cargo ship. MMSI: 220465000.

Date/timePositionNaut miles runAvg speedWind from/ knotsBaromVisibWave heightAir tempDewpointWater temp
2017-Oct-18 13:04S 01°28' W 056°21'0 0.1
2017-Oct-18 12:58S 01°28' W 056°21'0 0.0
2017-Oct-18 12:25S 01°28' W 056°21'0 0.0
2017-Oct-18 11:58S 01°28' W 056°21'0 0.0
2017-Oct-18 11:25S 01°28' W 056°21'0 0.0
2017-Oct-18 10:58S 01°28' W 056°21'0 0.0
2017-Oct-18 10:28S 01°28' W 056°21'0 0.0
2017-Oct-18 09:58S 01°28' W 056°21'0 0.0
2017-Oct-18 09:28S 01°28' W 056°21'0 0.0
2017-Oct-18 08:58S 01°28' W 056°21'0 0.0
2017-Oct-18 08:28S 01°28' W 056°21'0 0.0
2017-Oct-18 07:58S 01°28' W 056°21'0 0.0
2017-Oct-18 07:28S 01°28' W 056°21'0 0.0
2017-Oct-18 06:58S 01°28' W 056°21'0 0.0
2017-Oct-18 06:28S 01°28' W 056°21'0 0.0
2017-Oct-18 05:58S 01°28' W 056°21'0 0.0
2017-Oct-18 05:28S 01°28' W 056°21'0 0.0
2017-Oct-18 04:58S 01°28' W 056°21'0 0.0
2017-Oct-18 04:25S 01°28' W 056°21'0 0.0
2017-Oct-18 03:58S 01°28' W 056°21'0 0.0
2017-Oct-18 03:28S 01°28' W 056°21'0 0.0
2017-Oct-18 02:58S 01°28' W 056°21'0 0.0
2017-Oct-18 02:25S 01°28' W 056°21'0 0.0
2017-Oct-18 01:55S 01°28' W 056°21'0 0.0
2017-Oct-18 01:28S 01°28' W 056°21'0 0.0
2017-Oct-18 00:58S 01°28' W 056°21'0 0.0
2017-Oct-18 00:25S 01°28' W 056°21'0 0.0
2017-Oct-17 23:58S 01°28' W 056°21'0 0.0
2017-Oct-17 23:28S 01°28' W 056°21'0 0.0
2017-Oct-17 22:55S 01°28' W 056°21'0 0.0
2017-Oct-17 22:28S 01°28' W 056°21'0 0.0
2017-Oct-17 21:58S 01°28' W 056°21'0 0.0
2017-Oct-17 21:25S 01°28' W 056°21'0 0.0
2017-Oct-17 20:58S 01°28' W 056°21'0 0.0
2017-Oct-17 20:22S 01°28' W 056°21'0 0.0
2017-Oct-17 19:58S 01°28' W 056°21'0 0.0
2017-Oct-17 19:19S 01°28' W 056°21'0 0.0
2017-Oct-17 18:55S 01°28' W 056°21'0 0.0
2017-Oct-17 18:28S 01°28' W 056°21'0 0.0
2017-Oct-17 17:58S 01°28' W 056°21'0 0.0
2017-Oct-17 17:25S 01°28' W 056°21'0 0.0
2017-Oct-17 16:55S 01°28' W 056°21'0 0.1
2017-Oct-17 16:25S 01°28' W 056°21'0 0.0
2017-Oct-17 15:58S 01°28' W 056°21'0 0.0
2017-Oct-17 15:10S 01°28' W 056°21'0 0.1
2017-Oct-17 14:58S 01°28' W 056°21'0 0.0
2017-Oct-17 14:28S 01°28' W 056°21'0 0.0
2017-Oct-17 13:58S 01°28' W 056°21'0 0.0
2017-Oct-17 13:28S 01°28' W 056°21'0 0.0
2017-Oct-17 12:58S 01°28' W 056°21'0 0.0
2017-Oct-17 12:28S 01°28' W 056°21'0 0.0
2017-Oct-17 11:58S 01°28' W 056°21'0 0.0
2017-Oct-17 11:25S 01°28' W 056°21'0 0.0
2017-Oct-17 10:58S 01°28' W 056°21'0 0.1
2017-Oct-17 10:28S 01°28' W 056°21'0 0.0
2017-Oct-17 09:58S 01°28' W 056°21'0 0.0
2017-Oct-17 09:28S 01°28' W 056°21'0 0.1
2017-Oct-17 08:58S 01°28' W 056°21'0 0.1
2017-Oct-17 08:29S 01°28' W 056°21'1 2.2
2017-Oct-17 08:00S 01°28' W 056°20'4 8.0
2017-Oct-17 07:30S 01°31' W 056°18'4 7.6
2017-Oct-17 07:00S 01°32' W 056°14'3 6.8
2017-Oct-17 06:30S 01°31' W 056°11'4 7.6
2017-Oct-17 06:00S 01°31' W 056°07'611.7
2017-Oct-17 05:30S 01°32' W 056°01'612.5
2017-Oct-17 05:00S 01°38' W 055°59'713.1
2017-Oct-17 04:30S 01°43' W 055°55'6 6.9
2017-Oct-17 03:40S 01°48' W 055°51'288 9.9
2017-Oct-15 22:30S 00°14' W 051°19'612.3
2017-Oct-15 22:00S 00°11' W 051°14'611.9
2017-Oct-15 21:30S 00°07' W 051°10'5 9.4
2017-Oct-15 21:00S 00°04' W 051°06'4 7.4
2017-Oct-15 20:30S 00°02' W 051°03'4 8.5
2017-Oct-15 20:00N 00°01' W 051°00'4 8.1
2017-Oct-15 19:30N 00°04' W 050°57'0 0.0
2017-Oct-15 18:57N 00°04' W 050°57'0 0.0
2017-Oct-15 18:27N 00°04' W 050°57'0 0.2
2017-Oct-15 17:57N 00°04' W 050°57'0 0.2
2017-Oct-15 17:21N 00°04' W 050°58'0 0.2
2017-Oct-15 16:57N 00°04' W 050°57'0 0.1
2017-Oct-15 16:27N 00°04' W 050°58'0 0.0
2017-Oct-15 15:57N 00°04' W 050°58'0 0.0
2017-Oct-15 15:27N 00°04' W 050°58'0 0.0
2017-Oct-15 14:57N 00°04' W 050°58'0 0.0
2017-Oct-15 13:57N 00°04' W 050°57'0 0.0
2017-Oct-15 13:27N 00°04' W 050°57'0 0.0
2017-Oct-15 13:00N 00°04' W 050°57'0 0.0
2017-Oct-15 12:30N 00°04' W 050°58'0 0.0
2017-Oct-15 12:00N 00°04' W 050°58'0 0.3
2017-Oct-15 11:30N 00°04' W 050°57'0 0.3
2017-Oct-15 11:00N 00°04' W 050°57'0 0.1
2017-Oct-15 10:30N 00°04' W 050°57'0 0.1
2017-Oct-15 10:00N 00°04' W 050°57'0 0.0
2017-Oct-15 09:30N 00°04' W 050°57'0 0.0
2017-Oct-15 09:00N 00°04' W 050°57'0 0.0
2017-Oct-15 08:30N 00°04' W 050°57'0 0.0
2017-Oct-15 08:00N 00°04' W 050°57'0 0.0
2017-Oct-15 07:31N 00°04' W 050°57'0 0.0
2017-Oct-15 07:00N 00°04' W 050°57'0 0.1
2017-Oct-15 06:24N 00°04' W 050°57'0 0.2
2017-Oct-15 06:00N 00°04' W 050°57'0 0.2
2017-Oct-15 05:30N 00°04' W 050°57'0 0.2
2017-Oct-15 05:00N 00°04' W 050°58'0 0.1
2017-Oct-15 04:31N 00°04' W 050°58'0 0.1
2017-Oct-15 04:00N 00°04' W 050°58'0 0.0
2017-Oct-15 03:30N 00°04' W 050°58'0 0.0
2017-Oct-15 03:00N 00°04' W 050°58'0 0.0
2017-Oct-15 02:30N 00°04' W 050°58'0 0.0
2017-Oct-15 01:54N 00°04' W 050°58'0 0.0
2017-Oct-15 01:25N 00°04' W 050°58'0 0.0
2017-Oct-15 01:01N 00°04' W 050°58'0 0.0
2017-Oct-15 00:30N 00°04' W 050°58'0 0.0
2017-Oct-15 00:00N 00°04' W 050°58'0 0.1
2017-Oct-14 23:30N 00°04' W 050°58'0 0.1
2017-Oct-14 22:54N 00°04' W 050°58'0 0.2
2017-Oct-14 22:30N 00°04' W 050°57'0 0.2
2017-Oct-14 22:00N 00°04' W 050°57'0 0.1
2017-Oct-14 21:30N 00°04' W 050°57'0 0.0
2017-Oct-14 21:00N 00°04' W 050°57'0 0.0
2017-Oct-14 20:30N 00°04' W 050°57'0 0.0
2017-Oct-14 20:00N 00°04' W 050°57'0 0.0
2017-Oct-14 19:30N 00°04' W 050°57'0 0.0
2017-Oct-14 19:00N 00°04' W 050°57'0 0.0
2017-Oct-14 18:30N 00°04' W 050°57'0 0.0
2017-Oct-14 18:00N 00°04' W 050°57'0 0.0
2017-Oct-14 17:30N 00°04' W 050°57'0 0.1
2017-Oct-14 17:00N 00°04' W 050°57'0 0.2
2017-Oct-14 16:27N 00°04' W 050°57'0 0.2
2017-Oct-14 15:57N 00°04' W 050°58'0 0.1
2017-Oct-14 15:27N 00°04' W 050°58'0 0.0
2017-Oct-14 14:57N 00°04' W 050°58'0 0.0
2017-Oct-14 14:27N 00°04' W 050°58'0 0.1
2017-Oct-14 13:57N 00°04' W 050°58'0 0.0
2017-Oct-14 13:27N 00°04' W 050°58'0 0.0
2017-Oct-14 12:57N 00°04' W 050°58'0 0.0
2017-Oct-14 12:27N 00°04' W 050°57'0 0.0
2017-Oct-14 11:57N 00°04' W 050°57'0 0.0
2017-Oct-14 11:27N 00°04' W 050°57'0 0.0
2017-Oct-14 11:00N 00°04' W 050°57'0 0.1
2017-Oct-14 10:30N 00°04' W 050°57'0 0.3
2017-Oct-14 10:00N 00°04' W 050°57'0 0.2
2017-Oct-14 09:30N 00°04' W 050°57'0 0.1
2017-Oct-14 09:00N 00°04' W 050°57'0 0.0
2017-Oct-14 08:30N 00°04' W 050°57'0 0.0
2017-Oct-14 08:00N 00°04' W 050°57'0 0.0
2017-Oct-14 07:30N 00°04' W 050°57'0 0.0
2017-Oct-14 07:00N 00°04' W 050°57'0 0.0
2017-Oct-14 06:30N 00°04' W 050°57'0 0.0
2017-Oct-14 06:00N 00°04' W 050°57'0 0.0
2017-Oct-14 05:24N 00°04' W 050°57'0 0.0
2017-Oct-14 05:00N 00°04' W 050°57'0 0.0
2017-Oct-14 04:27N 00°04' W 050°57'0 0.2
2017-Oct-14 03:57N 00°04' W 050°57'0 0.3
2017-Oct-14 03:27N 00°04' W 050°57'0 0.2
2017-Oct-14 02:57N 00°04' W 050°58'0 0.0
2017-Oct-14 02:27N 00°04' W 050°58'0 0.0
2017-Oct-14 01:57N 00°04' W 050°58'0 0.0
2017-Oct-14 01:27N 00°04' W 050°58'0 0.0
2017-Oct-14 00:57N 00°04' W 050°58'0 0.0
2017-Oct-14 00:27N 00°04' W 050°58'0 0.1
2017-Oct-13 23:57N 00°04' W 050°57'0 0.0
2017-Oct-13 23:27N 00°04' W 050°58'0 0.0
2017-Oct-13 22:58N 00°04' W 050°57'0 0.0
2017-Oct-13 22:27N 00°04' W 050°57'0 0.0
2017-Oct-13 21:57N 00°04' W 050°57'0 0.3
2017-Oct-13 21:27N 00°04' W 050°57'0 0.2
2017-Oct-13 20:57N 00°04' W 050°57'0 0.0
2017-Oct-13 19:30N 00°04' W 050°57'0 0.0
2017-Oct-13 19:00N 00°04' W 050°57'0 0.0
2017-Oct-13 18:30N 00°04' W 050°57'0 0.1
2017-Oct-13 18:00N 00°04' W 050°57'0 0.0
2017-Oct-13 17:30N 00°04' W 050°57'0 0.0
2017-Oct-13 17:00N 00°04' W 050°57'0 0.0
2017-Oct-13 16:24N 00°04' W 050°57'0 0.0
2017-Oct-13 16:00N 00°04' W 050°57'0 0.0
2017-Oct-13 15:30N 00°04' W 050°57'0 0.2
2017-Oct-13 15:00N 00°04' W 050°57'0 0.2
2017-Oct-13 14:24N 00°04' W 050°58'0 0.0
2017-Oct-13 14:00N 00°04' W 050°58'0 0.0
2017-Oct-13 13:24N 00°04' W 050°58'0 0.0
2017-Oct-13 13:00N 00°04' W 050°58'0 0.1
2017-Oct-13 12:24N 00°04' W 050°57'0 0.0
2017-Oct-13 11:59N 00°04' W 050°57'0 0.0
2017-Oct-13 11:29N 00°04' W 050°57'0 0.0
2017-Oct-13 10:59N 00°04' W 050°57'0 0.0
2017-Oct-13 10:29N 00°04' W 050°57'0 0.0
2017-Oct-13 09:59N 00°04' W 050°57'0 0.0
2017-Oct-13 09:29N 00°04' W 050°57'0 0.2
2017-Oct-13 08:59N 00°04' W 050°57'0 0.3
2017-Oct-13 08:29N 00°04' W 050°57'0 0.1
2017-Oct-13 07:59N 00°04' W 050°57'0 0.1
2017-Oct-13 07:29N 00°04' W 050°57'0 0.0
2017-Oct-13 06:59N 00°04' W 050°57'0 0.0
2017-Oct-13 06:22N 00°04' W 050°57'0 0.0
2017-Oct-13 05:59N 00°04' W 050°57'0 0.0
2017-Oct-13 05:29N 00°04' W 050°57'0 0.0
2017-Oct-13 04:59N 00°04' W 050°57'0 0.0
2017-Oct-13 04:29N 00°04' W 050°57'0 0.0
2017-Oct-13 03:55N 00°04' W 050°57'0 0.0
2017-Oct-13 03:25N 00°04' W 050°57'0 0.3
2017-Oct-13 02:55N 00°04' W 050°57'0 0.3
2017-Oct-13 02:25N 00°04' W 050°58'0 0.1
2017-Oct-13 01:55N 00°04' W 050°58'0 0.0
2017-Oct-13 01:25N 00°04' W 050°58'0 0.1
2017-Oct-13 00:55N 00°04' W 050°58'0 0.1
2017-Oct-13 00:25N 00°04' W 050°58'0 0.0
2017-Oct-12 23:55N 00°04' W 050°58'0 0.0
2017-Oct-12 23:25N 00°04' W 050°58'0 0.1
2017-Oct-12 22:55N 00°04' W 050°58'0 0.0
2017-Oct-12 22:25N 00°04' W 050°58'0 0.0
2017-Oct-12 21:55N 00°04' W 050°58'0 0.1
2017-Oct-12 21:29N 00°04' W 050°57'0 0.0
2017-Oct-12 20:58N 00°04' W 050°57'0 0.1
2017-Oct-12 20:28N 00°04' W 050°58'0 0.2
2017-Oct-12 19:58N 00°04' W 050°57'0 0.2
2017-Oct-12 19:28N 00°04' W 050°57'0 0.1
2017-Oct-12 18:58N 00°04' W 050°57'0 0.0
2017-Oct-12 18:29N 00°04' W 050°57'0 0.0
2017-Oct-12 17:58N 00°04' W 050°57'0 0.0
2017-Oct-12 17:28N 00°04' W 050°57'0 0.0
2017-Oct-12 16:52N 00°04' W 050°57'0 0.0
2017-Oct-12 16:28N 00°04' W 050°57'0 0.0
2017-Oct-12 15:58N 00°04' W 050°57'0 0.0
2017-Oct-12 15:28N 00°04' W 050°57'0 0.0
2017-Oct-12 14:59N 00°04' W 050°57'0 0.0
2017-Oct-12 14:29N 00°04' W 050°57'0 0.1
2017-Oct-12 13:59N 00°04' W 050°57'0 0.2
2017-Oct-12 13:29N 00°04' W 050°57'0 0.2
2017-Oct-12 12:59N 00°04' W 050°58'0 0.1
2017-Oct-12 11:47N 00°04' W 050°58'0 0.0
2017-Oct-12 11:10N 00°04' W 050°58'0 0.0
2017-Oct-12 10:52N 00°04' W 050°58'0 0.0
2017-Oct-12 10:23N 00°04' W 050°58'0 0.0
2017-Oct-12 09:59N 00°04' W 050°58'0 0.0
2017-Oct-12 09:29N 00°04' W 050°58'0 0.0
2017-Oct-12 08:59N 00°04' W 050°58'0 0.0
2017-Oct-12 08:29N 00°04' W 050°58'0 0.1
2017-Oct-12 07:59N 00°04' W 050°58'0 0.2
2017-Oct-12 07:29N 00°04' W 050°58'0 0.2
2017-Oct-12 06:59N 00°04' W 050°57'0 0.2
2017-Oct-12 06:29N 00°04' W 050°57'0 0.0
2017-Oct-12 05:59N 00°04' W 050°57'0 0.0
2017-Oct-12 05:29N 00°04' W 050°57'0 0.0
2017-Oct-12 04:58N 00°04' W 050°57'0 0.0
2017-Oct-12 04:29N 00°04' W 050°57'0 0.0
2017-Oct-12 03:59N 00°04' W 050°57'0 0.0
2017-Oct-12 03:29N 00°04' W 050°57'0 0.0
2017-Oct-12 02:59N 00°04' W 050°57'0 0.0
2017-Oct-12 02:28N 00°04' W 050°57'0 0.1
2017-Oct-12 01:59N 00°04' W 050°57'0 0.1
2017-Oct-12 01:29N 00°04' W 050°57'0 0.2
2017-Oct-12 00:59N 00°04' W 050°58'0 0.1
2017-Oct-12 00:29N 00°04' W 050°58'0 0.1
2017-Oct-11 23:59N 00°04' W 050°58'0 0.0
2017-Oct-11 23:25N 00°04' W 050°58'0 0.0
2017-Oct-11 22:55N 00°04' W 050°57'0 0.0
2017-Oct-11 22:25N 00°04' W 050°57'0 0.0
2017-Oct-11 21:55N 00°04' W 050°57'0 0.0
2017-Oct-11 21:25N 00°04' W 050°57'0 0.0
2017-Oct-11 20:55N 00°04' W 050°57'0 0.0
2017-Oct-11 20:25N 00°04' W 050°58'0 0.0
2017-Oct-11 19:55N 00°04' W 050°58'0 0.2
2017-Oct-11 19:25N 00°04' W 050°57'0 0.2
2017-Oct-11 18:55N 00°04' W 050°57'0 0.1
2017-Oct-11 18:13N 00°04' W 050°57'0 0.1
2017-Oct-11 17:55N 00°04' W 050°57'0 0.0
2017-Oct-11 17:25N 00°04' W 050°57'0 0.0
2017-Oct-11 16:55N 00°04' W 050°57'0 0.0
2017-Oct-10 23:55N 00°04' W 050°58'0 0.1
2017-Oct-10 23:25N 00°04' W 050°58'0 0.1
2017-Oct-10 22:55N 00°04' W 050°58'0 0.0
2017-Oct-10 22:25N 00°04' W 050°57'0 0.0
2017-Oct-10 21:49N 00°04' W 050°57'0 0.0
2017-Oct-10 21:25N 00°04' W 050°57'0 0.0
2017-Oct-10 20:55N 00°04' W 050°57'0 0.0
2017-Oct-10 20:25N 00°04' W 050°57'0 0.0
2017-Oct-10 19:55N 00°04' W 050°57'0 0.1
2017-Oct-10 19:25N 00°04' W 050°58'0 0.0
2017-Oct-10 18:55N 00°04' W 050°58'0 0.0
2017-Oct-10 18:25N 00°04' W 050°58'0 0.3
2017-Oct-10 17:49N 00°04' W 050°57'0 0.1
2017-Oct-10 17:25N 00°04' W 050°57'0 0.1
2017-Oct-10 16:55N 00°04' W 050°57'0 0.1
2017-Oct-10 16:25N 00°04' W 050°57'0 0.0
2017-Oct-10 15:55N 00°04' W 050°57'0 0.0
2017-Oct-10 15:25N 00°04' W 050°57'0 0.0
2017-Oct-10 14:55N 00°04' W 050°57'0 0.0
2017-Oct-10 13:55N 00°04' W 050°57'0 0.0
2017-Oct-10 13:25N 00°04' W 050°57'0 0.0
2017-Oct-10 12:55N 00°04' W 050°57'0 0.1
2017-Oct-10 12:25N 00°04' W 050°57'0 0.1
2017-Oct-10 11:55N 00°04' W 050°57'0 0.3
2017-Oct-10 11:25N 00°04' W 050°57'0 0.1
2017-Oct-10 10:55N 00°04' W 050°57'0 0.1
2017-Oct-10 10:25N 00°04' W 050°57'0 0.0
2017-Oct-10 09:55N 00°04' W 050°57'0 0.0
2017-Oct-10 09:19N 00°04' W 050°57'0 0.0
2017-Oct-10 08:55N 00°04' W 050°57'0 0.0
2017-Oct-10 08:25N 00°04' W 050°57'0 0.0
2017-Oct-10 07:55N 00°04' W 050°57'0 0.0
2017-Oct-10 07:25N 00°04' W 050°57'0 0.0
2017-Oct-10 06:55N 00°04' W 050°57'0 0.1
2017-Oct-10 06:25N 00°04' W 050°57'0 0.0
2017-Oct-10 05:55N 00°04' W 050°57'0 0.2
2017-Oct-10 05:25N 00°04' W 050°57'0 0.3
2017-Oct-10 04:55N 00°04' W 050°57'0 0.1
2017-Oct-10 04:25N 00°04' W 050°57'0 0.0
2017-Oct-10 03:55N 00°04' W 050°57'0 0.1
2017-Oct-10 03:25N 00°04' W 050°57'0 0.1
2017-Oct-10 02:55N 00°04' W 050°57'0 0.0
2017-Oct-10 02:25N 00°04' W 050°57'0 0.0
2017-Oct-10 01:55N 00°04' W 050°57'0 0.0
2017-Oct-10 01:25N 00°04' W 050°57'0 0.0
2017-Oct-10 00:55N 00°04' W 050°57'0 0.0
2017-Oct-10 00:25N 00°04' W 050°57'0 0.2
2017-Oct-09 23:55N 00°04' W 050°57'0 0.2
2017-Oct-09 23:25N 00°04' W 050°57'0 0.1
2017-Oct-09 22:53N 00°04' W 050°58'0 0.1
2017-Oct-09 22:29N 00°04' W 050°58'0 0.0
2017-Oct-09 21:59N 00°04' W 050°58'0 0.0
2017-Oct-09 21:28N 00°04' W 050°58'0 0.0
2017-Oct-09 20:58N 00°04' W 050°57'0 0.0
2017-Oct-09 20:28N 00°04' W 050°57'0 0.0
2017-Oct-09 19:58N 00°04' W 050°57'0 0.0
2017-Oct-09 19:28N 00°04' W 050°57'0 0.0
2017-Oct-09 18:59N 00°04' W 050°57'0 0.0
2017-Oct-09 18:28N 00°04' W 050°57'0 0.0
2017-Oct-09 17:59N 00°04' W 050°57'0 0.3
2017-Oct-09 17:29N 00°04' W 050°57'0 0.3
2017-Oct-09 16:59N 00°04' W 050°57'0 0.1
2017-Oct-09 16:29N 00°04' W 050°57'0 0.0
2017-Oct-09 15:59N 00°04' W 050°57'0 0.0
2017-Oct-09 15:29N 00°04' W 050°57'0 0.0
2017-Oct-09 14:59N 00°04' W 050°57'0 0.0
2017-Oct-09 14:22N 00°04' W 050°57'0 0.0
2017-Oct-09 13:59N 00°04' W 050°57'0 0.0
2017-Oct-09 13:29N 00°04' W 050°57'0 0.0
2017-Oct-09 12:59N 00°04' W 050°57'0 0.0
2017-Oct-09 12:29N 00°04' W 050°57'0 0.0
2017-Oct-09 11:58N 00°04' W 050°57'0 0.0
2017-Oct-09 11:29N 00°04' W 050°57'0 0.1
2017-Oct-09 10:58N 00°04' W 050°57'0 0.2
2017-Oct-09 10:28N 00°04' W 050°57'0 0.2
2017-Oct-09 09:58N 00°04' W 050°57'0 0.1
2017-Oct-09 09:28N 00°04' W 050°57'0 0.0
2017-Oct-09 08:59N 00°04' W 050°57'0 0.0
2017-Oct-09 08:29N 00°04' W 050°57'0 0.0
2017-Oct-09 07:59N 00°04' W 050°57'0 0.0
2017-Oct-09 07:23N 00°04' W 050°57'0 0.0
2017-Oct-09 06:59N 00°04' W 050°57'0 0.0
2017-Oct-09 06:29N 00°04' W 050°57'0 0.0
2017-Oct-09 05:59N 00°04' W 050°57'0 0.0
2017-Oct-09 05:29N 00°04' W 050°57'0 0.2
2017-Oct-09 04:59N 00°04' W 050°57'0 0.4
2017-Oct-09 04:29N 00°04' W 050°57'0 0.1
2017-Oct-09 03:59N 00°04' W 050°57'0 0.0
2017-Oct-09 03:25N 00°04' W 050°57'0 0.0
2017-Oct-09 02:55N 00°04' W 050°57'0 0.0
2017-Oct-09 02:25N 00°04' W 050°57'0 0.0
2017-Oct-09 01:55N 00°04' W 050°57'0 0.0
2017-Oct-09 01:25N 00°04' W 050°57'0 0.0
2017-Oct-09 00:55N 00°04' W 050°57'0 0.0
2017-Oct-09 00:25N 00°04' W 050°57'0 0.1
2017-Oct-08 23:55N 00°04' W 050°57'0 0.0
2017-Oct-08 23:25N 00°04' W 050°57'0 0.2
2017-Oct-08 22:55N 00°04' W 050°57'0 0.2
2017-Oct-08 22:25N 00°04' W 050°57'0 0.1
2017-Oct-08 21:55N 00°04' W 050°58'0 0.1
2017-Oct-08 21:25N 00°04' W 050°58'0 0.1
2017-Oct-08 20:55N 00°04' W 050°58'0 0.0
2017-Oct-08 20:25N 00°04' W 050°57'0 0.0
2017-Oct-08 19:56N 00°04' W 050°57'0 0.0
2017-Oct-08 19:25N 00°04' W 050°57'0 0.0
2017-Oct-08 18:55N 00°04' W 050°57'0 0.1
2017-Oct-08 18:25N 00°04' W 050°57'0 0.0
2017-Oct-08 17:55N 00°04' W 050°57'0 0.0
2017-Oct-08 17:25N 00°04' W 050°57'0 0.0
2017-Oct-08 16:49N 00°04' W 050°58'0 0.2
2017-Oct-08 16:25N 00°04' W 050°58'0 0.3
2017-Oct-08 15:49N 00°04' W 050°57'0 0.1
2017-Oct-08 15:25N 00°04' W 050°57'0 0.0
2017-Oct-08 14:49N 00°04' W 050°57'0 0.0
2017-Oct-08 14:25N 00°04' W 050°57'0 0.0
2017-Oct-08 13:55N 00°04' W 050°57'0 0.0
2017-Oct-08 13:25N 00°04' W 050°57'  
Track history (hours):
 
Tides and Currents Weather Stations Pressure Air Temp Water Temp Dewpoint Dewpoint Depression Visibility Wind Speed Wind Dir Waves Ship Positions

Nordpol

Last reported at 2017-Oct-18 13:04 UTC. Time now 2017-Oct-22 17:21 UTC.
Position S 01°28' W 056°21'.

Length 225 m; draft 6.7 m.

Type: Cargo ship. MMSI: 220465000.

Date/timePositionNaut miles runAvg speedWind from/ knotsBaromVisibWave heightAir tempDewpointWater temp
2017-Oct-18 13:04S 01°28' W 056°21'0 0.1
2017-Oct-18 12:58S 01°28' W 056°21'0 0.0
2017-Oct-18 12:25S 01°28' W 056°21'0 0.0
2017-Oct-18 11:58S 01°28' W 056°21'0 0.0
2017-Oct-18 11:25S 01°28' W 056°21'0 0.0
2017-Oct-18 10:58S 01°28' W 056°21'0 0.0
2017-Oct-18 10:28S 01°28' W 056°21'0 0.0
2017-Oct-18 09:58S 01°28' W 056°21'0 0.0
2017-Oct-18 09:28S 01°28' W 056°21'0 0.0
2017-Oct-18 08:58S 01°28' W 056°21'0 0.0
2017-Oct-18 08:28S 01°28' W 056°21'0 0.0
2017-Oct-18 07:58S 01°28' W 056°21'0 0.0
2017-Oct-18 07:28S 01°28' W 056°21'0 0.0
2017-Oct-18 06:58S 01°28' W 056°21'0 0.0
2017-Oct-18 06:28S 01°28' W 056°21'0 0.0
2017-Oct-18 05:58S 01°28' W 056°21'0 0.0
2017-Oct-18 05:28S 01°28' W 056°21'0 0.0
2017-Oct-18 04:58S 01°28' W 056°21'0 0.0
2017-Oct-18 04:25S 01°28' W 056°21'0 0.0
2017-Oct-18 03:58S 01°28' W 056°21'0 0.0
2017-Oct-18 03:28S 01°28' W 056°21'0 0.0
2017-Oct-18 02:58S 01°28' W 056°21'0 0.0
2017-Oct-18 02:25S 01°28' W 056°21'0 0.0
2017-Oct-18 01:55S 01°28' W 056°21'0 0.0
2017-Oct-18 01:28S 01°28' W 056°21'0 0.0
2017-Oct-18 00:58S 01°28' W 056°21'0 0.0
2017-Oct-18 00:25S 01°28' W 056°21'0 0.0
2017-Oct-17 23:58S 01°28' W 056°21'0 0.0
2017-Oct-17 23:28S 01°28' W 056°21'0 0.0
2017-Oct-17 22:55S 01°28' W 056°21'0 0.0
2017-Oct-17 22:28S 01°28' W 056°21'0 0.0
2017-Oct-17 21:58S 01°28' W 056°21'0 0.0
2017-Oct-17 21:25S 01°28' W 056°21'0 0.0
2017-Oct-17 20:58S 01°28' W 056°21'0 0.0
2017-Oct-17 20:22S 01°28' W 056°21'0 0.0
2017-Oct-17 19:58S 01°28' W 056°21'0 0.0
2017-Oct-17 19:19S 01°28' W 056°21'0 0.0
2017-Oct-17 18:55S 01°28' W 056°21'0 0.0
2017-Oct-17 18:28S 01°28' W 056°21'0 0.0
2017-Oct-17 17:58S 01°28' W 056°21'0 0.0
2017-Oct-17 17:25S 01°28' W 056°21'0 0.0
2017-Oct-17 16:55S 01°28' W 056°21'0 0.1
2017-Oct-17 16:25S 01°28' W 056°21'0 0.0
2017-Oct-17 15:58S 01°28' W 056°21'0 0.0
2017-Oct-17 15:10S 01°28' W 056°21'0 0.1
2017-Oct-17 14:58S 01°28' W 056°21'0 0.0
2017-Oct-17 14:28S 01°28' W 056°21'0 0.0
2017-Oct-17 13:58S 01°28' W 056°21'0 0.0
2017-Oct-17 13:28S 01°28' W 056°21'0 0.0
2017-Oct-17 12:58S 01°28' W 056°21'0 0.0
2017-Oct-17 12:28S 01°28' W 056°21'0 0.0
2017-Oct-17 11:58S 01°28' W 056°21'0 0.0
2017-Oct-17 11:25S 01°28' W 056°21'0 0.0
2017-Oct-17 10:58S 01°28' W 056°21'0 0.1
2017-Oct-17 10:28S 01°28' W 056°21'0 0.0
2017-Oct-17 09:58S 01°28' W 056°21'0 0.0
2017-Oct-17 09:28S 01°28' W 056°21'0 0.1
2017-Oct-17 08:58S 01°28' W 056°21'0 0.1
2017-Oct-17 08:29S 01°28' W 056°21'1 2.2
2017-Oct-17 08:00S 01°28' W 056°20'4 8.0
2017-Oct-17 07:30S 01°31' W 056°18'4 7.6
2017-Oct-17 07:00S 01°32' W 056°14'3 6.8
2017-Oct-17 06:30S 01°31' W 056°11'4 7.6
2017-Oct-17 06:00S 01°31' W 056°07'611.7
2017-Oct-17 05:30S 01°32' W 056°01'612.5
2017-Oct-17 05:00S 01°38' W 055°59'713.1
2017-Oct-17 04:30S 01°43' W 055°55'6 6.9
2017-Oct-17 03:40S 01°48' W 055°51'288 9.9
2017-Oct-15 22:30S 00°14' W 051°19'612.3
2017-Oct-15 22:00S 00°11' W 051°14'611.9
2017-Oct-15 21:30S 00°07' W 051°10'5 9.4
2017-Oct-15 21:00S 00°04' W 051°06'4 7.4
2017-Oct-15 20:30S 00°02' W 051°03'4 8.5
2017-Oct-15 20:00N 00°01' W 051°00'4 8.1
2017-Oct-15 19:30N 00°04' W 050°57'0 0.0
2017-Oct-15 18:57N 00°04' W 050°57'0 0.0
2017-Oct-15 18:27N 00°04' W 050°57'0 0.2
2017-Oct-15 17:57N 00°04' W 050°57'0 0.2
2017-Oct-15 17:21N 00°04' W 050°58'0 0.2
2017-Oct-15 16:57N 00°04' W 050°57'0 0.1
2017-Oct-15 16:27N 00°04' W 050°58'0 0.0
2017-Oct-15 15:57N 00°04' W 050°58'0 0.0
2017-Oct-15 15:27N 00°04' W 050°58'0 0.0
2017-Oct-15 14:57N 00°04' W 050°58'0 0.0
2017-Oct-15 13:57N 00°04' W 050°57'0 0.0
2017-Oct-15 13:27N 00°04' W 050°57'0 0.0
2017-Oct-15 13:00N 00°04' W 050°57'0 0.0
2017-Oct-15 12:30N 00°04' W 050°58'0 0.0
2017-Oct-15 12:00N 00°04' W 050°58'0 0.3
2017-Oct-15 11:30N 00°04' W 050°57'0 0.3
2017-Oct-15 11:00N 00°04' W 050°57'0 0.1
2017-Oct-15 10:30N 00°04' W 050°57'0 0.1
2017-Oct-15 10:00N 00°04' W 050°57'0 0.0
2017-Oct-15 09:30N 00°04' W 050°57'0 0.0
2017-Oct-15 09:00N 00°04' W 050°57'0 0.0
2017-Oct-15 08:30N 00°04' W 050°57'0 0.0
2017-Oct-15 08:00N 00°04' W 050°57'0 0.0
2017-Oct-15 07:31N 00°04' W 050°57'0 0.0
2017-Oct-15 07:00N 00°04' W 050°57'0 0.1
2017-Oct-15 06:24N 00°04' W 050°57'0 0.2
2017-Oct-15 06:00N 00°04' W 050°57'0 0.2
2017-Oct-15 05:30N 00°04' W 050°57'0 0.2
2017-Oct-15 05:00N 00°04' W 050°58'0 0.1
2017-Oct-15 04:31N 00°04' W 050°58'0 0.1
2017-Oct-15 04:00N 00°04' W 050°58'0 0.0
2017-Oct-15 03:30N 00°04' W 050°58'0 0.0
2017-Oct-15 03:00N 00°04' W 050°58'0 0.0
2017-Oct-15 02:30N 00°04' W 050°58'0 0.0
2017-Oct-15 01:54N 00°04' W 050°58'0 0.0
2017-Oct-15 01:25N 00°04' W 050°58'0 0.0
2017-Oct-15 01:01N 00°04' W 050°58'0 0.0
2017-Oct-15 00:30N 00°04' W 050°58'0 0.0
2017-Oct-15 00:00N 00°04' W 050°58'0 0.1
2017-Oct-14 23:30N 00°04' W 050°58'0 0.1
2017-Oct-14 22:54N 00°04' W 050°58'0 0.2
2017-Oct-14 22:30N 00°04' W 050°57'0 0.2
2017-Oct-14 22:00N 00°04' W 050°57'0 0.1
2017-Oct-14 21:30N 00°04' W 050°57'0 0.0
2017-Oct-14 21:00N 00°04' W 050°57'0 0.0
2017-Oct-14 20:30N 00°04' W 050°57'0 0.0
2017-Oct-14 20:00N 00°04' W 050°57'0 0.0
2017-Oct-14 19:30N 00°04' W 050°57'0 0.0
2017-Oct-14 19:00N 00°04' W 050°57'0 0.0
2017-Oct-14 18:30N 00°04' W 050°57'0 0.0
2017-Oct-14 18:00N 00°04' W 050°57'0 0.0
2017-Oct-14 17:30N 00°04' W 050°57'0 0.1
2017-Oct-14 17:00N 00°04' W 050°57'0 0.2
2017-Oct-14 16:27N 00°04' W 050°57'0 0.2
2017-Oct-14 15:57N 00°04' W 050°58'0 0.1
2017-Oct-14 15:27N 00°04' W 050°58'0 0.0
2017-Oct-14 14:57N 00°04' W 050°58'0 0.0
2017-Oct-14 14:27N 00°04' W 050°58'0 0.1
2017-Oct-14 13:57N 00°04' W 050°58'0 0.0
2017-Oct-14 13:27N 00°04' W 050°58'0 0.0
2017-Oct-14 12:57N 00°04' W 050°58'0 0.0
2017-Oct-14 12:27N 00°04' W 050°57'0 0.0
2017-Oct-14 11:57N 00°04' W 050°57'0 0.0
2017-Oct-14 11:27N 00°04' W 050°57'0 0.0
2017-Oct-14 11:00N 00°04' W 050°57'0 0.1
2017-Oct-14 10:30N 00°04' W 050°57'0 0.3
2017-Oct-14 10:00N 00°04' W 050°57'0 0.2
2017-Oct-14 09:30N 00°04' W 050°57'0 0.1
2017-Oct-14 09:00N 00°04' W 050°57'0 0.0
2017-Oct-14 08:30N 00°04' W 050°57'0 0.0
2017-Oct-14 08:00N 00°04' W 050°57'0 0.0
2017-Oct-14 07:30N 00°04' W 050°57'0 0.0
2017-Oct-14 07:00N 00°04' W 050°57'0 0.0
2017-Oct-14 06:30N 00°04' W 050°57'0 0.0
2017-Oct-14 06:00N 00°04' W 050°57'0 0.0
2017-Oct-14 05:24N 00°04' W 050°57'0 0.0
2017-Oct-14 05:00N 00°04' W 050°57'0 0.0
2017-Oct-14 04:27N 00°04' W 050°57'0 0.2
2017-Oct-14 03:57N 00°04' W 050°57'0 0.3
2017-Oct-14 03:27N 00°04' W 050°57'0 0.2
2017-Oct-14 02:57N 00°04' W 050°58'0 0.0
2017-Oct-14 02:27N 00°04' W 050°58'0 0.0
2017-Oct-14 01:57N 00°04' W 050°58'0 0.0
2017-Oct-14 01:27N 00°04' W 050°58'0 0.0
2017-Oct-14 00:57N 00°04' W 050°58'0 0.0
2017-Oct-14 00:27N 00°04' W 050°58'0 0.1
2017-Oct-13 23:57N 00°04' W 050°57'0 0.0
2017-Oct-13 23:27N 00°04' W 050°58'0 0.0
2017-Oct-13 22:58N 00°04' W 050°57'0 0.0
2017-Oct-13 22:27N 00°04' W 050°57'0 0.0
2017-Oct-13 21:57N 00°04' W 050°57'0 0.3
2017-Oct-13 21:27N 00°04' W 050°57'0 0.2
2017-Oct-13 20:57N 00°04' W 050°57'0 0.0
2017-Oct-13 19:30N 00°04' W 050°57'0 0.0
2017-Oct-13 19:00N 00°04' W 050°57'0 0.0
2017-Oct-13 18:30N 00°04' W 050°57'0 0.1
2017-Oct-13 18:00N 00°04' W 050°57'0 0.0
2017-Oct-13 17:30N 00°04' W 050°57'0 0.0
2017-Oct-13 17:00N 00°04' W 050°57'0 0.0
2017-Oct-13 16:24N 00°04' W 050°57'0 0.0
2017-Oct-13 16:00N 00°04' W 050°57'0 0.0
2017-Oct-13 15:30N 00°04' W 050°57'0 0.2
2017-Oct-13 15:00N 00°04' W 050°57'0 0.2
2017-Oct-13 14:24N 00°04' W 050°58'0 0.0
2017-Oct-13 14:00N 00°04' W 050°58'0 0.0
2017-Oct-13 13:24N 00°04' W 050°58'0 0.0
2017-Oct-13 13:00N 00°04' W 050°58'0 0.1
2017-Oct-13 12:24N 00°04' W 050°57'0 0.0
2017-Oct-13 11:59N 00°04' W 050°57'0 0.0
2017-Oct-13 11:29N 00°04' W 050°57'0 0.0
2017-Oct-13 10:59N 00°04' W 050°57'0 0.0
2017-Oct-13 10:29N 00°04' W 050°57'0 0.0
2017-Oct-13 09:59N 00°04' W 050°57'0 0.0
2017-Oct-13 09:29N 00°04' W 050°57'0 0.2
2017-Oct-13 08:59N 00°04' W 050°57'0 0.3
2017-Oct-13 08:29N 00°04' W 050°57'0 0.1
2017-Oct-13 07:59N 00°04' W 050°57'0 0.1
2017-Oct-13 07:29N 00°04' W 050°57'0 0.0
2017-Oct-13 06:59N 00°04' W 050°57'0 0.0
2017-Oct-13 06:22N 00°04' W 050°57'0 0.0
2017-Oct-13 05:59N 00°04' W 050°57'0 0.0
2017-Oct-13 05:29N 00°04' W 050°57'0 0.0
2017-Oct-13 04:59N 00°04' W 050°57'0 0.0
2017-Oct-13 04:29N 00°04' W 050°57'0 0.0
2017-Oct-13 03:55N 00°04' W 050°57'0 0.0
2017-Oct-13 03:25N 00°04' W 050°57'0 0.3
2017-Oct-13 02:55N 00°04' W 050°57'0 0.3
2017-Oct-13 02:25N 00°04' W 050°58'0 0.1
2017-Oct-13 01:55N 00°04' W 050°58'0 0.0
2017-Oct-13 01:25N 00°04' W 050°58'0 0.1
2017-Oct-13 00:55N 00°04' W 050°58'0 0.1
2017-Oct-13 00:25N 00°04' W 050°58'0 0.0
2017-Oct-12 23:55N 00°04' W 050°58'0 0.0
2017-Oct-12 23:25N 00°04' W 050°58'0 0.1
2017-Oct-12 22:55N 00°04' W 050°58'0 0.0
2017-Oct-12 22:25N 00°04' W 050°58'0 0.0
2017-Oct-12 21:55N 00°04' W 050°58'0 0.1
2017-Oct-12 21:29N 00°04' W 050°57'0 0.0
2017-Oct-12 20:58N 00°04' W 050°57'0 0.1
2017-Oct-12 20:28N 00°04' W 050°58'0 0.2
2017-Oct-12 19:58N 00°04' W 050°57'0 0.2
2017-Oct-12 19:28N 00°04' W 050°57'0 0.1
2017-Oct-12 18:58N 00°04' W 050°57'0 0.0
2017-Oct-12 18:29N 00°04' W 050°57'0 0.0
2017-Oct-12 17:58N 00°04' W 050°57'0 0.0
2017-Oct-12 17:28N 00°04' W 050°57'0 0.0
2017-Oct-12 16:52N 00°04' W 050°57'0 0.0
2017-Oct-12 16:28N 00°04' W 050°57'0 0.0
2017-Oct-12 15:58N 00°04' W 050°57'0 0.0
2017-Oct-12 15:28N 00°04' W 050°57'0 0.0
2017-Oct-12 14:59N 00°04' W 050°57'0 0.0
2017-Oct-12 14:29N 00°04' W 050°57'0 0.1
2017-Oct-12 13:59N 00°04' W 050°57'0 0.2
2017-Oct-12 13:29N 00°04' W 050°57'0 0.2
2017-Oct-12 12:59N 00°04' W 050°58'0 0.1
2017-Oct-12 11:47N 00°04' W 050°58'0 0.0
2017-Oct-12 11:10N 00°04' W 050°58'0 0.0
2017-Oct-12 10:52N 00°04' W 050°58'0 0.0
2017-Oct-12 10:23N 00°04' W 050°58'0 0.0
2017-Oct-12 09:59N 00°04' W 050°58'0 0.0
2017-Oct-12 09:29N 00°04' W 050°58'0 0.0
2017-Oct-12 08:59N 00°04' W 050°58'0 0.0
2017-Oct-12 08:29N 00°04' W 050°58'0 0.1
2017-Oct-12 07:59N 00°04' W 050°58'0 0.2
2017-Oct-12 07:29N 00°04' W 050°58'0 0.2
2017-Oct-12 06:59N 00°04' W 050°57'0 0.2
2017-Oct-12 06:29N 00°04' W 050°57'0 0.0
2017-Oct-12 05:59N 00°04' W 050°57'0 0.0
2017-Oct-12 05:29N 00°04' W 050°57'0 0.0
2017-Oct-12 04:58N 00°04' W 050°57'0 0.0
2017-Oct-12 04:29N 00°04' W 050°57'0 0.0
2017-Oct-12 03:59N 00°04' W 050°57'0 0.0
2017-Oct-12 03:29N 00°04' W 050°57'0 0.0
2017-Oct-12 02:59N 00°04' W 050°57'0 0.0
2017-Oct-12 02:28N 00°04' W 050°57'0 0.1
2017-Oct-12 01:59N 00°04' W 050°57'0 0.1
2017-Oct-12 01:29N 00°04' W 050°57'0 0.2
2017-Oct-12 00:59N 00°04' W 050°58'0 0.1
2017-Oct-12 00:29N 00°04' W 050°58'0 0.1
2017-Oct-11 23:59N 00°04' W 050°58'0 0.0
2017-Oct-11 23:25N 00°04' W 050°58'0 0.0
2017-Oct-11 22:55N 00°04' W 050°57'0 0.0
2017-Oct-11 22:25N 00°04' W 050°57'0 0.0
2017-Oct-11 21:55N 00°04' W 050°57'0 0.0
2017-Oct-11 21:25N 00°04' W 050°57'0 0.0
2017-Oct-11 20:55N 00°04' W 050°57'0 0.0
2017-Oct-11 20:25N 00°04' W 050°58'0 0.0
2017-Oct-11 19:55N 00°04' W 050°58'0 0.2
2017-Oct-11 19:25N 00°04' W 050°57'0 0.2
2017-Oct-11 18:55N 00°04' W 050°57'0 0.1
2017-Oct-11 18:13N 00°04' W 050°57'0 0.1
2017-Oct-11 17:55N 00°04' W 050°57'0 0.0
2017-Oct-11 17:25N 00°04' W 050°57'0 0.0
2017-Oct-11 16:55N 00°04' W 050°57'0 0.0
2017-Oct-10 23:55N 00°04' W 050°58'0 0.1
2017-Oct-10 23:25N 00°04' W 050°58'0 0.1
2017-Oct-10 22:55N 00°04' W 050°58'0 0.0
2017-Oct-10 22:25N 00°04' W 050°57'0 0.0
2017-Oct-10 21:49N 00°04' W 050°57'0 0.0
2017-Oct-10 21:25N 00°04' W 050°57'0 0.0
2017-Oct-10 20:55N 00°04' W 050°57'0 0.0
2017-Oct-10 20:25N 00°04' W 050°57'0 0.0
2017-Oct-10 19:55N 00°04' W 050°57'0 0.1
2017-Oct-10 19:25N 00°04' W 050°58'0 0.0
2017-Oct-10 18:55N 00°04' W 050°58'0 0.0
2017-Oct-10 18:25N 00°04' W 050°58'0 0.3
2017-Oct-10 17:49N 00°04' W 050°57'0 0.1
2017-Oct-10 17:25N 00°04' W 050°57'0 0.1
2017-Oct-10 16:55N 00°04' W 050°57'0 0.1
2017-Oct-10 16:25N 00°04' W 050°57'0 0.0
2017-Oct-10 15:55N 00°04' W 050°57'0 0.0
2017-Oct-10 15:25N 00°04' W 050°57'0 0.0
2017-Oct-10 14:55N 00°04' W 050°57'0 0.0
2017-Oct-10 13:55N 00°04' W 050°57'0 0.0
2017-Oct-10 13:25N 00°04' W 050°57'0 0.0
2017-Oct-10 12:55N 00°04' W 050°57'0 0.1
2017-Oct-10 12:25N 00°04' W 050°57'0 0.1
2017-Oct-10 11:55N 00°04' W 050°57'0 0.3
2017-Oct-10 11:25N 00°04' W 050°57'0 0.1
2017-Oct-10 10:55N 00°04' W 050°57'0 0.1
2017-Oct-10 10:25N 00°04' W 050°57'0 0.0
2017-Oct-10 09:55N 00°04' W 050°57'0 0.0
2017-Oct-10 09:19N 00°04' W 050°57'0 0.0
2017-Oct-10 08:55N 00°04' W 050°57'0 0.0
2017-Oct-10 08:25N 00°04' W 050°57'0 0.0
2017-Oct-10 07:55N 00°04' W 050°57'0 0.0
2017-Oct-10 07:25N 00°04' W 050°57'0 0.0
2017-Oct-10 06:55N 00°04' W 050°57'0 0.1
2017-Oct-10 06:25N 00°04' W 050°57'0 0.0
2017-Oct-10 05:55N 00°04' W 050°57'0 0.2
2017-Oct-10 05:25N 00°04' W 050°57'0 0.3
2017-Oct-10 04:55N 00°04' W 050°57'0 0.1
2017-Oct-10 04:25N 00°04' W 050°57'0 0.0
2017-Oct-10 03:55N 00°04' W 050°57'0 0.1
2017-Oct-10 03:25N 00°04' W 050°57'0 0.1
2017-Oct-10 02:55N 00°04' W 050°57'0 0.0
2017-Oct-10 02:25N 00°04' W 050°57'0 0.0
2017-Oct-10 01:55N 00°04' W 050°57'0 0.0
2017-Oct-10 01:25N 00°04' W 050°57'0 0.0
2017-Oct-10 00:55N 00°04' W 050°57'0 0.0
2017-Oct-10 00:25N 00°04' W 050°57'0 0.2
2017-Oct-09 23:55N 00°04' W 050°57'0 0.2
2017-Oct-09 23:25N 00°04' W 050°57'0 0.1
2017-Oct-09 22:53N 00°04' W 050°58'0 0.1
2017-Oct-09 22:29N 00°04' W 050°58'0 0.0
2017-Oct-09 21:59N 00°04' W 050°58'0 0.0
2017-Oct-09 21:28N 00°04' W 050°58'0 0.0
2017-Oct-09 20:58N 00°04' W 050°57'0 0.0
2017-Oct-09 20:28N 00°04' W 050°57'0 0.0
2017-Oct-09 19:58N 00°04' W 050°57'0 0.0
2017-Oct-09 19:28N 00°04' W 050°57'0 0.0
2017-Oct-09 18:59N 00°04' W 050°57'0 0.0
2017-Oct-09 18:28N 00°04' W 050°57'0 0.0
2017-Oct-09 17:59N 00°04' W 050°57'0 0.3
2017-Oct-09 17:29N 00°04' W 050°57'0 0.3
2017-Oct-09 16:59N 00°04' W 050°57'0 0.1
2017-Oct-09 16:29N 00°04' W 050°57'0 0.0
2017-Oct-09 15:59N 00°04' W 050°57'0 0.0
2017-Oct-09 15:29N 00°04' W 050°57'0 0.0
2017-Oct-09 14:59N 00°04' W 050°57'0 0.0
2017-Oct-09 14:22N 00°04' W 050°57'0 0.0
2017-Oct-09 13:59N 00°04' W 050°57'0 0.0
2017-Oct-09 13:29N 00°04' W 050°57'0 0.0
2017-Oct-09 12:59N 00°04' W 050°57'0 0.0
2017-Oct-09 12:29N 00°04' W 050°57'0 0.0
2017-Oct-09 11:58N 00°04' W 050°57'0 0.0
2017-Oct-09 11:29N 00°04' W 050°57'0 0.1
2017-Oct-09 10:58N 00°04' W 050°57'0 0.2
2017-Oct-09 10:28N 00°04' W 050°57'0 0.2
2017-Oct-09 09:58N 00°04' W 050°57'0 0.1
2017-Oct-09 09:28N 00°04' W 050°57'0 0.0
2017-Oct-09 08:59N 00°04' W 050°57'0 0.0
2017-Oct-09 08:29N 00°04' W 050°57'0 0.0
2017-Oct-09 07:59N 00°04' W 050°57'0 0.0
2017-Oct-09 07:23N 00°04' W 050°57'0 0.0
2017-Oct-09 06:59N 00°04' W 050°57'0 0.0
2017-Oct-09 06:29N 00°04' W 050°57'0 0.0
2017-Oct-09 05:59N 00°04' W 050°57'0 0.0
2017-Oct-09 05:29N 00°04' W 050°57'0 0.2
2017-Oct-09 04:59N 00°04' W 050°57'0 0.4
2017-Oct-09 04:29N 00°04' W 050°57'0 0.1
2017-Oct-09 03:59N 00°04' W 050°57'0 0.0
2017-Oct-09 03:25N 00°04' W 050°57'0 0.0
2017-Oct-09 02:55N 00°04' W 050°57'0 0.0
2017-Oct-09 02:25N 00°04' W 050°57'0 0.0
2017-Oct-09 01:55N 00°04' W 050°57'0 0.0
2017-Oct-09 01:25N 00°04' W 050°57'0 0.0
2017-Oct-09 00:55N 00°04' W 050°57'0 0.0
2017-Oct-09 00:25N 00°04' W 050°57'0 0.1
2017-Oct-08 23:55N 00°04' W 050°57'0 0.0
2017-Oct-08 23:25N 00°04' W 050°57'0 0.2
2017-Oct-08 22:55N 00°04' W 050°57'0 0.2
2017-Oct-08 22:25N 00°04' W 050°57'0 0.1
2017-Oct-08 21:55N 00°04' W 050°58'0 0.1
2017-Oct-08 21:25N 00°04' W 050°58'0 0.1
2017-Oct-08 20:55N 00°04' W 050°58'0 0.0
2017-Oct-08 20:25N 00°04' W 050°57'0 0.0
2017-Oct-08 19:56N 00°04' W 050°57'0 0.0
2017-Oct-08 19:25N 00°04' W 050°57'0 0.0
2017-Oct-08 18:55N 00°04' W 050°57'0 0.1
2017-Oct-08 18:25N 00°04' W 050°57'0 0.0
2017-Oct-08 17:55N 00°04' W 050°57'0 0.0
2017-Oct-08 17:25N 00°04' W 050°57'0 0.0
2017-Oct-08 16:49N 00°04' W 050°58'0 0.2
2017-Oct-08 16:25N 00°04' W 050°58'0 0.3
2017-Oct-08 15:49N 00°04' W 050°57'0 0.1
2017-Oct-08 15:25N 00°04' W 050°57'0 0.0
2017-Oct-08 14:49N 00°04' W 050°57'0 0.0
2017-Oct-08 14:25N 00°04' W 050°57'0 0.0
2017-Oct-08 13:55N 00°04' W 050°57'0 0.0
2017-Oct-08 13:25N 00°04' W 050°57'  

Dump ship's entire track history